Search for airport 
image banner adimage banner adimage banner ad
image banner ad

KPIT - Pittsburgh Intl

Located in Pittsburgh, United States

ICAO - PIT, IATA - PIT

Data provided by Airmate  

General information

Coordinates: N40°29'29" W80°13'58"
Elevation is 1203 feet MSL.
Magnetic variation is -09° East
View others Airports in Pennsylvania

Operational data

Special qualification required
Current time UTC:
Current local time:
Weather
METAR: KPIT 061251Z 30004KT 10SM SCT009 SCT250 07/04 A3014 RMK AO2 SLP219 T00670039 $
TAF: KPIT 061120Z 0612/0718 31003KT P6SM SCT015 FM061900 28006KT P6SM BKN120 FM070100 13003KT P6SM BKN060 FM070900 29003KT P6SM VCSH BKN025 FM071200 30003KT P6SM -SHRA BKN015
View NOTAMs / SUP AIP / TFR affecting this airport [VIEW]
Communications frequencies: [VIEW]

Runways:

RWY identifierQFULength (ft)Width (ft)SurfaceLDA (ft)
10C92°10775150OTHER9708
28C272°10775150OTHER9708
10R92°11500200CONC11492
28L272°11500200CONC11500
10L92°10502150OTHER10502
28R272°10502150OTHER10102
14136°8101150CONC7366
32316°8101150CONC7466

Airport contact information

Address: Pittsburgh United States

Satellite view of KPIT